sensor_id;sensor_type;location;lat;lon;timestamp;P1;durP1;ratioP1;P2;durP2;ratioP2
16075;SDS011;8142;48.242;11.644;2024-02-26T00:00:50;18.80;;;10.37;;
16075;SDS011;8142;48.242;11.644;2024-02-26T00:03:16;14.10;;;8.47;;
16075;SDS011;8142;48.242;11.644;2024-02-26T00:05:42;13.70;;;8.47;;
16075;SDS011;8142;48.242;11.644;2024-02-26T00:08:08;13.17;;;7.60;;
16075;SDS011;8142;48.242;11.644;2024-02-26T00:10:34;10.13;;;6.37;;
16075;SDS011;8142;48.242;11.644;2024-02-26T00:13:00;11.33;;;6.57;;
16075;SDS011;8142;48.242;11.644;2024-02-26T00:15:26;9.50;;;6.40;;
16075;SDS011;8142;48.242;11.644;2024-02-26T00:17:53;10.80;;;6.37;;
16075;SDS011;8142;48.242;11.644;2024-02-26T00:20:19;9.67;;;6.03;;
16075;SDS011;8142;48.242;11.644;2024-02-26T00:22:44;9.97;;;6.70;;
16075;SDS011;8142;48.242;11.644;2024-02-26T00:25:10;9.73;;;6.70;;
16075;SDS011;8142;48.242;11.644;2024-02-26T00:27:37;9.00;;;6.60;;
16075;SDS011;8142;48.242;11.644;2024-02-26T00:30:05;11.40;;;6.90;;
16075;SDS011;8142;48.242;11.644;2024-02-26T00:32:32;11.37;;;7.20;;
16075;SDS011;8142;48.242;11.644;2024-02-26T00:34:58;10.43;;;6.90;;
16075;SDS011;8142;48.242;11.644;2024-02-26T00:37:24;9.67;;;6.57;;
16075;SDS011;8142;48.242;11.644;2024-02-26T00:39:50;11.00;;;7.10;;
16075;SDS011;8142;48.242;11.644;2024-02-26T00:42:15;11.60;;;8.13;;
16075;SDS011;8142;48.242;11.644;2024-02-26T00:44:41;11.00;;;7.43;;
16075;SDS011;8142;48.242;11.644;2024-02-26T00:47:07;12.97;;;8.23;;
16075;SDS011;8142;48.242;11.644;2024-02-26T00:49:33;10.63;;;7.23;;
16075;SDS011;8142;48.242;11.644;2024-02-26T00:51:59;10.70;;;7.40;;
16075;SDS011;8142;48.242;11.644;2024-02-26T00:54:25;10.70;;;7.33;;
16075;SDS011;8142;48.242;11.644;2024-02-26T00:56:51;10.87;;;7.23;;
16075;SDS011;8142;48.242;11.644;2024-02-26T00:59:17;9.43;;;6.70;;
16075;SDS011;8142;48.242;11.644;2024-02-26T01:01:43;10.53;;;6.77;;
16075;SDS011;8142;48.242;11.644;2024-02-26T01:04:08;9.13;;;6.67;;
16075;SDS011;8142;48.242;11.644;2024-02-26T01:06:35;10.47;;;7.13;;
16075;SDS011;8142;48.242;11.644;2024-02-26T01:09:01;14.17;;;8.57;;
16075;SDS011;8142;48.242;11.644;2024-02-26T01:11:28;15.90;;;9.27;;
16075;SDS011;8142;48.242;11.644;2024-02-26T01:13:53;15.33;;;9.40;;
16075;SDS011;8142;48.242;11.644;2024-02-26T01:16:22;15.60;;;10.10;;
16075;SDS011;8142;48.242;11.644;2024-02-26T01:18:48;17.20;;;10.60;;
16075;SDS011;8142;48.242;11.644;2024-02-26T01:21:14;14.00;;;9.10;;
16075;SDS011;8142;48.242;11.644;2024-02-26T01:23:40;12.80;;;8.17;;
16075;SDS011;8142;48.242;11.644;2024-02-26T01:26:07;12.10;;;8.30;;
16075;SDS011;8142;48.242;11.644;2024-02-26T01:28:33;10.67;;;6.93;;
16075;SDS011;8142;48.242;11.644;2024-02-26T01:30:59;10.47;;;6.90;;
16075;SDS011;8142;48.242;11.644;2024-02-26T01:33:26;9.67;;;6.90;;
16075;SDS011;8142;48.242;11.644;2024-02-26T01:35:51;13.90;;;7.10;;
16075;SDS011;8142;48.242;11.644;2024-02-26T01:38:18;12.73;;;7.83;;
16075;SDS011;8142;48.242;11.644;2024-02-26T01:40:44;14.70;;;9.67;;
16075;SDS011;8142;48.242;11.644;2024-02-26T01:43:10;17.60;;;10.67;;
16075;SDS011;8142;48.242;11.644;2024-02-26T01:45:36;15.03;;;10.13;;
16075;SDS011;8142;48.242;11.644;2024-02-26T01:48:02;18.00;;;11.07;;
16075;SDS011;8142;48.242;11.644;2024-02-26T01:50:28;11.67;;;8.20;;
16075;SDS011;8142;48.242;11.644;2024-02-26T01:52:54;12.07;;;8.03;;
16075;SDS011;8142;48.242;11.644;2024-02-26T01:55:22;10.27;;;7.27;;
16075;SDS011;8142;48.242;11.644;2024-02-26T01:57:49;12.33;;;7.30;;
16075;SDS011;8142;48.242;11.644;2024-02-26T02:00:17;10.07;;;7.27;;
16075;SDS011;8142;48.242;11.644;2024-02-26T02:02:44;11.43;;;8.10;;
16075;SDS011;8142;48.242;11.644;2024-02-26T02:05:14;13.70;;;8.70;;
16075;SDS011;8142;48.242;11.644;2024-02-26T02:07:43;13.77;;;8.97;;
16075;SDS011;8142;48.242;11.644;2024-02-26T02:10:09;11.53;;;8.07;;
16075;SDS011;8142;48.242;11.644;2024-02-26T02:12:35;12.77;;;7.97;;
16075;SDS011;8142;48.242;11.644;2024-02-26T02:15:04;11.87;;;7.97;;
16075;SDS011;8142;48.242;11.644;2024-02-26T02:17:31;16.43;;;9.37;;
16075;SDS011;8142;48.242;11.644;2024-02-26T02:19:57;17.23;;;10.30;;
16075;SDS011;8142;48.242;11.644;2024-02-26T02:22:23;13.50;;;9.17;;
16075;SDS011;8142;48.242;11.644;2024-02-26T02:24:49;15.20;;;10.27;;
16075;SDS011;8142;48.242;11.644;2024-02-26T02:27:17;16.10;;;9.90;;
16075;SDS011;8142;48.242;11.644;2024-02-26T02:29:43;17.33;;;11.17;;
16075;SDS011;8142;48.242;11.644;2024-02-26T02:32:09;14.43;;;9.73;;
16075;SDS011;8142;48.242;11.644;2024-02-26T02:34:35;20.27;;;11.50;;
16075;SDS011;8142;48.242;11.644;2024-02-26T02:37:01;19.63;;;11.90;;
16075;SDS011;8142;48.242;11.644;2024-02-26T02:39:27;15.30;;;10.37;;
16075;SDS011;8142;48.242;11.644;2024-02-26T02:41:53;18.63;;;11.70;;
16075;SDS011;8142;48.242;11.644;2024-02-26T02:44:19;18.27;;;11.77;;
16075;SDS011;8142;48.242;11.644;2024-02-26T02:46:45;19.40;;;12.17;;
16075;SDS011;8142;48.242;11.644;2024-02-26T02:49:11;19.03;;;12.37;;
16075;SDS011;8142;48.242;11.644;2024-02-26T02:51:37;18.33;;;11.90;;
16075;SDS011;8142;48.242;11.644;2024-02-26T02:54:03;18.53;;;12.17;;
16075;SDS011;8142;48.242;11.644;2024-02-26T02:56:29;19.30;;;12.37;;
16075;SDS011;8142;48.242;11.644;2024-02-26T02:58:54;18.53;;;11.33;;
16075;SDS011;8142;48.242;11.644;2024-02-26T03:01:20;18.50;;;11.43;;
16075;SDS011;8142;48.242;11.644;2024-02-26T03:03:46;17.20;;;11.33;;
16075;SDS011;8142;48.242;11.644;2024-02-26T03:06:12;19.13;;;11.50;;
16075;SDS011;8142;48.242;11.644;2024-02-26T03:08:38;16.10;;;10.17;;
16075;SDS011;8142;48.242;11.644;2024-02-26T03:11:05;20.23;;;11.77;;
16075;SDS011;8142;48.242;11.644;2024-02-26T03:13:31;17.53;;;11.10;;
16075;SDS011;8142;48.242;11.644;2024-02-26T03:16:03;18.07;;;11.20;;
16075;SDS011;8142;48.242;11.644;2024-02-26T03:18:30;19.03;;;12.03;;
16075;SDS011;8142;48.242;11.644;2024-02-26T03:20:56;17.53;;;11.30;;
16075;SDS011;8142;48.242;11.644;2024-02-26T03:23:22;18.10;;;11.30;;
16075;SDS011;8142;48.242;11.644;2024-02-26T03:25:48;17.73;;;11.70;;
16075;SDS011;8142;48.242;11.644;2024-02-26T03:28:13;19.03;;;11.87;;
16075;SDS011;8142;48.242;11.644;2024-02-26T03:30:39;15.47;;;10.43;;
16075;SDS011;8142;48.242;11.644;2024-02-26T03:33:05;16.17;;;10.53;;
16075;SDS011;8142;48.242;11.644;2024-02-26T03:35:31;17.50;;;11.10;;
16075;SDS011;8142;48.242;11.644;2024-02-26T03:37:57;17.83;;;10.70;;
16075;SDS011;8142;48.242;11.644;2024-02-26T03:40:23;16.33;;;10.43;;
16075;SDS011;8142;48.242;11.644;2024-02-26T03:42:49;15.70;;;9.97;;
16075;SDS011;8142;48.242;11.644;2024-02-26T03:45:18;14.87;;;8.83;;
16075;SDS011;8142;48.242;11.644;2024-02-26T03:47:44;13.80;;;9.10;;
16075;SDS011;8142;48.242;11.644;2024-02-26T03:50:09;15.07;;;9.40;;
16075;SDS011;8142;48.242;11.644;2024-02-26T03:52:36;12.63;;;8.60;;
16075;SDS011;8142;48.242;11.644;2024-02-26T03:55:02;15.73;;;9.50;;
16075;SDS011;8142;48.242;11.644;2024-02-26T03:57:28;15.07;;;9.67;;
16075;SDS011;8142;48.242;11.644;2024-02-26T03:59:54;16.23;;;9.83;;
16075;SDS011;8142;48.242;11.644;2024-02-26T04:02:20;14.33;;;8.87;;
16075;SDS011;8142;48.242;11.644;2024-02-26T04:04:46;15.50;;;9.77;;
16075;SDS011;8142;48.242;11.644;2024-02-26T04:07:12;15.37;;;9.47;;
16075;SDS011;8142;48.242;11.644;2024-02-26T04:09:38;18.33;;;9.97;;
16075;SDS011;8142;48.242;11.644;2024-02-26T04:12:04;18.33;;;10.73;;
16075;SDS011;8142;48.242;11.644;2024-02-26T04:14:30;17.03;;;10.17;;
16075;SDS011;8142;48.242;11.644;2024-02-26T04:16:56;15.50;;;10.13;;
16075;SDS011;8142;48.242;11.644;2024-02-26T04:19:22;14.20;;;9.43;;
16075;SDS011;8142;48.242;11.644;2024-02-26T04:21:48;16.13;;;9.77;;
16075;SDS011;8142;48.242;11.644;2024-02-26T04:24:14;16.20;;;10.07;;
16075;SDS011;8142;48.242;11.644;2024-02-26T04:26:41;16.90;;;10.80;;
16075;SDS011;8142;48.242;11.644;2024-02-26T04:29:07;16.53;;;10.57;;
16075;SDS011;8142;48.242;11.644;2024-02-26T04:31:33;17.23;;;10.77;;
16075;SDS011;8142;48.242;11.644;2024-02-26T04:33:59;17.23;;;10.03;;
16075;SDS011;8142;48.242;11.644;2024-02-26T04:36:25;17.10;;;10.77;;
16075;SDS011;8142;48.242;11.644;2024-02-26T04:38:53;17.83;;;10.43;;
16075;SDS011;8142;48.242;11.644;2024-02-26T04:41:21;13.40;;;9.00;;
16075;SDS011;8142;48.242;11.644;2024-02-26T04:43:47;15.17;;;9.53;;
16075;SDS011;8142;48.242;11.644;2024-02-26T04:46:13;14.37;;;9.40;;
16075;SDS011;8142;48.242;11.644;2024-02-26T04:48:39;16.67;;;9.63;;
16075;SDS011;8142;48.242;11.644;2024-02-26T04:51:07;17.63;;;9.50;;
16075;SDS011;8142;48.242;11.644;2024-02-26T04:53:33;15.77;;;9.97;;
16075;SDS011;8142;48.242;11.644;2024-02-26T04:55:59;16.27;;;10.13;;
16075;SDS011;8142;48.242;11.644;2024-02-26T04:58:25;14.93;;;9.47;;
16075;SDS011;8142;48.242;11.644;2024-02-26T05:00:50;14.87;;;9.27;;
16075;SDS011;8142;48.242;11.644;2024-02-26T05:03:16;16.10;;;9.63;;
16075;SDS011;8142;48.242;11.644;2024-02-26T05:05:42;15.47;;;9.53;;
16075;SDS011;8142;48.242;11.644;2024-02-26T05:08:09;15.23;;;9.70;;
16075;SDS011;8142;48.242;11.644;2024-02-26T05:10:35;16.33;;;10.20;;
16075;SDS011;8142;48.242;11.644;2024-02-26T05:13:04;16.90;;;10.23;;
16075;SDS011;8142;48.242;11.644;2024-02-26T05:15:31;18.43;;;10.40;;
16075;SDS011;8142;48.242;11.644;2024-02-26T05:17:57;18.63;;;11.40;;
16075;SDS011;8142;48.242;11.644;2024-02-26T05:20:23;16.03;;;10.10;;
16075;SDS011;8142;48.242;11.644;2024-02-26T05:22:49;16.00;;;9.80;;
16075;SDS011;8142;48.242;11.644;2024-02-26T05:25:16;15.10;;;9.93;;
16075;SDS011;8142;48.242;11.644;2024-02-26T05:27:43;17.00;;;10.47;;
16075;SDS011;8142;48.242;11.644;2024-02-26T05:30:09;16.20;;;10.13;;
16075;SDS011;8142;48.242;11.644;2024-02-26T05:32:36;15.77;;;9.83;;
16075;SDS011;8142;48.242;11.644;2024-02-26T05:35:02;15.47;;;9.90;;
16075;SDS011;8142;48.242;11.644;2024-02-26T05:37:29;14.47;;;9.27;;
16075;SDS011;8142;48.242;11.644;2024-02-26T05:39:56;13.87;;;9.57;;
16075;SDS011;8142;48.242;11.644;2024-02-26T05:42:22;14.87;;;9.23;;
16075;SDS011;8142;48.242;11.644;2024-02-26T05:44:48;16.07;;;10.17;;
16075;SDS011;8142;48.242;11.644;2024-02-26T05:47:13;16.10;;;10.20;;
16075;SDS011;8142;48.242;11.644;2024-02-26T05:49:40;13.23;;;9.47;;
16075;SDS011;8142;48.242;11.644;2024-02-26T05:52:06;16.60;;;9.87;;
16075;SDS011;8142;48.242;11.644;2024-02-26T05:54:31;17.40;;;9.83;;
16075;SDS011;8142;48.242;11.644;2024-02-26T05:56:57;15.83;;;9.77;;
16075;SDS011;8142;48.242;11.644;2024-02-26T05:59:23;15.70;;;9.73;;
16075;SDS011;8142;48.242;11.644;2024-02-26T06:01:49;14.10;;;9.57;;
16075;SDS011;8142;48.242;11.644;2024-02-26T06:04:15;15.10;;;9.77;;
16075;SDS011;8142;48.242;11.644;2024-02-26T06:06:44;14.57;;;10.13;;
16075;SDS011;8142;48.242;11.644;2024-02-26T06:09:11;17.87;;;12.00;;
16075;SDS011;8142;48.242;11.644;2024-02-26T06:11:37;26.90;;;15.87;;
16075;SDS011;8142;48.242;11.644;2024-02-26T06:14:03;21.33;;;12.87;;
16075;SDS011;8142;48.242;11.644;2024-02-26T06:16:29;18.10;;;11.47;;
16075;SDS011;8142;48.242;11.644;2024-02-26T06:18:55;14.30;;;10.00;;
16075;SDS011;8142;48.242;11.644;2024-02-26T06:21:22;15.10;;;10.60;;
16075;SDS011;8142;48.242;11.644;2024-02-26T06:23:48;15.43;;;10.10;;
16075;SDS011;8142;48.242;11.644;2024-02-26T06:26:14;15.83;;;10.30;;
16075;SDS011;8142;48.242;11.644;2024-02-26T06:28:40;15.97;;;10.23;;
16075;SDS011;8142;48.242;11.644;2024-02-26T06:31:06;15.33;;;10.37;;
16075;SDS011;8142;48.242;11.644;2024-02-26T06:33:32;18.27;;;11.20;;
16075;SDS011;8142;48.242;11.644;2024-02-26T06:35:58;19.93;;;11.07;;
16075;SDS011;8142;48.242;11.644;2024-02-26T06:38:24;17.10;;;10.93;;
16075;SDS011;8142;48.242;11.644;2024-02-26T06:40:50;16.83;;;10.80;;
16075;SDS011;8142;48.242;11.644;2024-02-26T06:43:16;15.97;;;10.93;;
16075;SDS011;8142;48.242;11.644;2024-02-26T06:45:42;16.97;;;11.30;;
16075;SDS011;8142;48.242;11.644;2024-02-26T06:48:08;15.77;;;10.50;;
16075;SDS011;8142;48.242;11.644;2024-02-26T06:50:34;15.67;;;10.67;;
16075;SDS011;8142;48.242;11.644;2024-02-26T06:53:00;15.33;;;10.53;;
16075;SDS011;8142;48.242;11.644;2024-02-26T06:55:26;15.77;;;10.50;;
16075;SDS011;8142;48.242;11.644;2024-02-26T06:57:52;17.77;;;11.43;;
16075;SDS011;8142;48.242;11.644;2024-02-26T07:00:18;17.07;;;10.40;;
16075;SDS011;8142;48.242;11.644;2024-02-26T07:02:44;16.83;;;10.80;;
16075;SDS011;8142;48.242;11.644;2024-02-26T07:05:10;17.50;;;11.23;;
16075;SDS011;8142;48.242;11.644;2024-02-26T07:07:36;18.70;;;11.37;;
16075;SDS011;8142;48.242;11.644;2024-02-26T07:10:02;16.47;;;10.53;;
16075;SDS011;8142;48.242;11.644;2024-02-26T07:12:29;16.87;;;10.83;;
16075;SDS011;8142;48.242;11.644;2024-02-26T07:14:55;16.23;;;10.50;;
16075;SDS011;8142;48.242;11.644;2024-02-26T07:17:21;17.13;;;10.17;;
16075;SDS011;8142;48.242;11.644;2024-02-26T07:19:47;18.63;;;10.97;;
16075;SDS011;8142;48.242;11.644;2024-02-26T07:22:13;16.23;;;10.37;;
16075;SDS011;8142;48.242;11.644;2024-02-26T07:24:40;17.23;;;11.23;;
16075;SDS011;8142;48.242;11.644;2024-02-26T07:27:06;18.27;;;11.23;;
16075;SDS011;8142;48.242;11.644;2024-02-26T07:29:32;17.10;;;11.37;;
16075;SDS011;8142;48.242;11.644;2024-02-26T07:31:58;17.03;;;11.40;;
16075;SDS011;8142;48.242;11.644;2024-02-26T07:34:24;18.00;;;12.03;;
16075;SDS011;8142;48.242;11.644;2024-02-26T07:36:57;18.47;;;11.57;;
16075;SDS011;8142;48.242;11.644;2024-02-26T07:39:23;18.63;;;11.50;;
16075;SDS011;8142;48.242;11.644;2024-02-26T07:41:49;18.77;;;11.30;;
16075;SDS011;8142;48.242;11.644;2024-02-26T07:44:18;18.60;;;10.83;;
16075;SDS011;8142;48.242;11.644;2024-02-26T07:46:44;15.80;;;10.87;;
16075;SDS011;8142;48.242;11.644;2024-02-26T07:49:10;19.83;;;11.63;;
16075;SDS011;8142;48.242;11.644;2024-02-26T07:51:36;24.47;;;13.63;;
16075;SDS011;8142;48.242;11.644;2024-02-26T07:54:02;40.13;;;18.03;;
16075;SDS011;8142;48.242;11.644;2024-02-26T07:56:28;32.47;;;15.63;;
16075;SDS011;8142;48.242;11.644;2024-02-26T07:58:53;23.70;;;12.63;;
16075;SDS011;8142;48.242;11.644;2024-02-26T08:01:19;16.27;;;10.70;;
16075;SDS011;8142;48.242;11.644;2024-02-26T08:03:45;15.13;;;10.30;;
16075;SDS011;8142;48.242;11.644;2024-02-26T08:06:11;14.73;;;9.57;;
16075;SDS011;8142;48.242;11.644;2024-02-26T08:08:37;15.23;;;9.13;;
16075;SDS011;8142;48.242;11.644;2024-02-26T08:11:03;13.90;;;9.30;;
16075;SDS011;8142;48.242;11.644;2024-02-26T08:13:29;14.90;;;9.90;;
16075;SDS011;8142;48.242;11.644;2024-02-26T08:15:55;16.30;;;10.03;;
16075;SDS011;8142;48.242;11.644;2024-02-26T08:18:23;15.70;;;9.37;;
16075;SDS011;8142;48.242;11.644;2024-02-26T08:20:49;14.43;;;9.53;;
16075;SDS011;8142;48.242;11.644;2024-02-26T08:23:15;14.53;;;9.67;;
16075;SDS011;8142;48.242;11.644;2024-02-26T08:25:41;14.03;;;9.27;;
16075;SDS011;8142;48.242;11.644;2024-02-26T08:28:07;15.43;;;9.30;;
16075;SDS011;8142;48.242;11.644;2024-02-26T08:30:33;13.13;;;9.03;;
16075;SDS011;8142;48.242;11.644;2024-02-26T08:32:59;14.70;;;10.03;;
16075;SDS011;8142;48.242;11.644;2024-02-26T08:35:25;16.47;;;9.87;;
16075;SDS011;8142;48.242;11.644;2024-02-26T08:37:54;15.70;;;9.67;;
16075;SDS011;8142;48.242;11.644;2024-02-26T08:40:22;15.20;;;9.23;;
16075;SDS011;8142;48.242;11.644;2024-02-26T08:42:48;15.07;;;9.13;;
16075;SDS011;8142;48.242;11.644;2024-02-26T08:45:14;14.07;;;9.70;;
16075;SDS011;8142;48.242;11.644;2024-02-26T08:47:40;12.47;;;8.10;;
16075;SDS011;8142;48.242;11.644;2024-02-26T08:50:06;12.80;;;8.63;;
16075;SDS011;8142;48.242;11.644;2024-02-26T08:52:32;11.43;;;8.13;;
16075;SDS011;8142;48.242;11.644;2024-02-26T08:54:58;13.13;;;8.33;;
16075;SDS011;8142;48.242;11.644;2024-02-26T08:57:24;15.63;;;8.60;;
16075;SDS011;8142;48.242;11.644;2024-02-26T08:59:52;12.07;;;8.27;;
16075;SDS011;8142;48.242;11.644;2024-02-26T09:02:20;13.10;;;8.47;;
16075;SDS011;8142;48.242;11.644;2024-02-26T09:04:46;10.63;;;7.20;;
16075;SDS011;8142;48.242;11.644;2024-02-26T09:07:13;9.10;;;6.60;;
16075;SDS011;8142;48.242;11.644;2024-02-26T09:09:39;13.13;;;6.73;;
16075;SDS011;8142;48.242;11.644;2024-02-26T09:12:04;11.80;;;6.40;;
16075;SDS011;8142;48.242;11.644;2024-02-26T09:14:31;10.33;;;6.23;;
16075;SDS011;8142;48.242;11.644;2024-02-26T09:16:57;11.00;;;6.30;;
16075;SDS011;8142;48.242;11.644;2024-02-26T09:19:23;9.10;;;6.57;;
16075;SDS011;8142;48.242;11.644;2024-02-26T09:21:50;10.93;;;6.73;;
16075;SDS011;8142;48.242;11.644;2024-02-26T09:24:17;8.87;;;6.10;;
16075;SDS011;8142;48.242;11.644;2024-02-26T09:26:44;11.13;;;6.33;;
16075;SDS011;8142;48.242;11.644;2024-02-26T09:29:11;8.97;;;6.10;;
16075;SDS011;8142;48.242;11.644;2024-02-26T09:31:37;9.33;;;6.30;;
16075;SDS011;8142;48.242;11.644;2024-02-26T09:34:05;8.50;;;5.67;;
16075;SDS011;8142;48.242;11.644;2024-02-26T09:36:31;10.33;;;5.80;;
16075;SDS011;8142;48.242;11.644;2024-02-26T09:38:57;7.07;;;4.87;;
16075;SDS011;8142;48.242;11.644;2024-02-26T09:41:23;5.60;;;4.47;;
16075;SDS011;8142;48.242;11.644;2024-02-26T09:43:48;5.20;;;3.67;;
16075;SDS011;8142;48.242;11.644;2024-02-26T09:46:21;6.67;;;4.70;;
16075;SDS011;8142;48.242;11.644;2024-02-26T09:48:50;6.23;;;4.23;;
16075;SDS011;8142;48.242;11.644;2024-02-26T09:51:17;6.43;;;4.43;;
16075;SDS011;8142;48.242;11.644;2024-02-26T09:53:44;6.43;;;4.70;;
16075;SDS011;8142;48.242;11.644;2024-02-26T09:56:12;6.27;;;4.40;;
16075;SDS011;8142;48.242;11.644;2024-02-26T09:58:39;6.93;;;4.90;;
16075;SDS011;8142;48.242;11.644;2024-02-26T10:01:10;8.30;;;4.83;;
16075;SDS011;8142;48.242;11.644;2024-02-26T10:03:39;6.83;;;4.47;;
16075;SDS011;8142;48.242;11.644;2024-02-26T10:06:07;7.23;;;4.37;;
16075;SDS011;8142;48.242;11.644;2024-02-26T10:08:34;5.53;;;4.00;;
16075;SDS011;8142;48.242;11.644;2024-02-26T10:11:02;4.50;;;3.43;;
16075;SDS011;8142;48.242;11.644;2024-02-26T10:13:31;5.23;;;3.67;;
16075;SDS011;8142;48.242;11.644;2024-02-26T10:15:58;5.17;;;3.80;;
16075;SDS011;8142;48.242;11.644;2024-02-26T10:18:24;4.00;;;3.60;;
16075;SDS011;8142;48.242;11.644;2024-02-26T10:21:02;4.60;;;3.67;;
16075;SDS011;8142;48.242;11.644;2024-02-26T10:23:28;5.43;;;3.70;;
16075;SDS011;8142;48.242;11.644;2024-02-26T10:25:55;5.07;;;3.67;;
16075;SDS011;8142;48.242;11.644;2024-02-26T10:28:22;4.73;;;3.57;;
16075;SDS011;8142;48.242;11.644;2024-02-26T10:30:48;4.23;;;3.03;;
16075;SDS011;8142;48.242;11.644;2024-02-26T10:33:15;3.37;;;2.97;;
16075;SDS011;8142;48.242;11.644;2024-02-26T10:35:46;4.73;;;2.80;;
16075;SDS011;8142;48.242;11.644;2024-02-26T10:38:13;3.63;;;2.57;;
16075;SDS011;8142;48.242;11.644;2024-02-26T10:40:42;4.13;;;2.83;;
16075;SDS011;8142;48.242;11.644;2024-02-26T10:43:08;2.87;;;2.47;;
16075;SDS011;8142;48.242;11.644;2024-02-26T10:45:34;2.90;;;2.60;;
16075;SDS011;8142;48.242;11.644;2024-02-26T10:48:00;3.60;;;2.50;;
16075;SDS011;8142;48.242;11.644;2024-02-26T10:50:26;3.70;;;2.50;;
16075;SDS011;8142;48.242;11.644;2024-02-26T10:52:52;3.67;;;2.20;;
16075;SDS011;8142;48.242;11.644;2024-02-26T10:55:21;3.77;;;2.13;;
16075;SDS011;8142;48.242;11.644;2024-02-26T10:57:52;2.80;;;2.50;;
16075;SDS011;8142;48.242;11.644;2024-02-26T11:00:21;2.73;;;2.37;;
16075;SDS011;8142;48.242;11.644;2024-02-26T11:02:48;2.80;;;2.33;;
16075;SDS011;8142;48.242;11.644;2024-02-26T11:05:15;2.80;;;2.53;;
16075;SDS011;8142;48.242;11.644;2024-02-26T11:07:42;3.13;;;2.63;;
16075;SDS011;8142;48.242;11.644;2024-02-26T11:10:10;3.43;;;2.83;;
16075;SDS011;8142;48.242;11.644;2024-02-26T11:12:37;3.60;;;2.90;;
16075;SDS011;8142;48.242;11.644;2024-02-26T11:15:05;6.13;;;3.10;;
16075;SDS011;8142;48.242;11.644;2024-02-26T11:17:31;3.67;;;2.67;;
16075;SDS011;8142;48.242;11.644;2024-02-26T11:19:59;5.20;;;2.90;;
16075;SDS011;8142;48.242;11.644;2024-02-26T11:22:37;4.23;;;2.60;;
16075;SDS011;8142;48.242;11.644;2024-02-26T11:25:04;3.63;;;2.43;;
16075;SDS011;8142;48.242;11.644;2024-02-26T11:27:33;3.30;;;2.70;;
16075;SDS011;8142;48.242;11.644;2024-02-26T11:30:04;4.07;;;2.87;;
16075;SDS011;8142;48.242;11.644;2024-02-26T11:32:34;3.20;;;2.60;;
16075;SDS011;8142;48.242;11.644;2024-02-26T11:35:00;3.20;;;2.40;;
16075;SDS011;8142;48.242;11.644;2024-02-26T11:37:26;2.50;;;2.23;;
16075;SDS011;8142;48.242;11.644;2024-02-26T11:39:52;3.50;;;2.53;;
16075;SDS011;8142;48.242;11.644;2024-02-26T11:42:22;3.13;;;2.47;;
16075;SDS011;8142;48.242;11.644;2024-02-26T11:44:55;3.20;;;2.57;;
16075;SDS011;8142;48.242;11.644;2024-02-26T11:47:27;2.80;;;2.47;;
16075;SDS011;8142;48.242;11.644;2024-02-26T11:49:53;3.63;;;2.37;;
16075;SDS011;8142;48.242;11.644;2024-02-26T11:52:19;3.33;;;2.50;;
16075;SDS011;8142;48.242;11.644;2024-02-26T11:57:30;3.93;;;3.20;;
16075;SDS011;8142;48.242;11.644;2024-02-26T12:05:19;4.80;;;3.40;;
16075;SDS011;8142;48.242;11.644;2024-02-26T12:07:54;4.53;;;3.40;;
16075;SDS011;8142;48.242;11.644;2024-02-26T12:10:38;3.87;;;3.00;;
16075;SDS011;8142;48.242;11.644;2024-02-26T12:13:09;5.27;;;3.60;;
16075;SDS011;8142;48.242;11.644;2024-02-26T12:15:43;3.97;;;3.07;;
16075;SDS011;8142;48.242;11.644;2024-02-26T12:18:15;3.43;;;3.00;;
16075;SDS011;8142;48.242;11.644;2024-02-26T12:20:42;4.80;;;3.23;;
16075;SDS011;8142;48.242;11.644;2024-02-26T12:23:15;3.83;;;2.90;;
16075;SDS011;8142;48.242;11.644;2024-02-26T12:25:45;5.40;;;3.47;;
16075;SDS011;8142;48.242;11.644;2024-02-26T12:28:16;5.03;;;3.57;;
16075;SDS011;8142;48.242;11.644;2024-02-26T12:30:42;6.03;;;3.47;;
16075;SDS011;8142;48.242;11.644;2024-02-26T12:33:08;5.20;;;3.67;;
16075;SDS011;8142;48.242;11.644;2024-02-26T12:35:35;3.77;;;2.90;;
16075;SDS011;8142;48.242;11.644;2024-02-26T12:38:02;4.20;;;2.73;;
16075;SDS011;8142;48.242;11.644;2024-02-26T12:40:29;3.43;;;2.90;;
16075;SDS011;8142;48.242;11.644;2024-02-26T12:42:56;4.73;;;2.90;;
16075;SDS011;8142;48.242;11.644;2024-02-26T12:45:22;3.30;;;2.80;;
16075;SDS011;8142;48.242;11.644;2024-02-26T12:47:48;3.60;;;2.90;;
16075;SDS011;8142;48.242;11.644;2024-02-26T12:50:17;3.97;;;2.60;;
16075;SDS011;8142;48.242;11.644;2024-02-26T12:52:44;2.60;;;2.33;;
16075;SDS011;8142;48.242;11.644;2024-02-26T12:55:13;3.80;;;2.10;;
16075;SDS011;8142;48.242;11.644;2024-02-26T12:57:41;2.57;;;2.37;;
16075;SDS011;8142;48.242;11.644;2024-02-26T13:00:08;2.47;;;2.27;;
16075;SDS011;8142;48.242;11.644;2024-02-26T13:02:38;2.03;;;1.90;;
16075;SDS011;8142;48.242;11.644;2024-02-26T13:05:05;3.93;;;2.13;;
16075;SDS011;8142;48.242;11.644;2024-02-26T13:07:33;2.87;;;2.47;;
16075;SDS011;8142;48.242;11.644;2024-02-26T13:10:00;2.93;;;2.20;;
16075;SDS011;8142;48.242;11.644;2024-02-26T13:12:26;3.00;;;2.40;;
16075;SDS011;8142;48.242;11.644;2024-02-26T13:14:59;3.73;;;2.60;;
16075;SDS011;8142;48.242;11.644;2024-02-26T13:17:25;5.03;;;2.00;;
16075;SDS011;8142;48.242;11.644;2024-02-26T13:19:53;2.83;;;1.90;;
16075;SDS011;8142;48.242;11.644;2024-02-26T13:22:22;2.20;;;1.97;;
16075;SDS011;8142;48.242;11.644;2024-02-26T13:24:55;2.53;;;2.10;;
16075;SDS011;8142;48.242;11.644;2024-02-26T13:27:22;5.87;;;2.37;;
16075;SDS011;8142;48.242;11.644;2024-02-26T13:29:49;4.23;;;2.50;;
16075;SDS011;8142;48.242;11.644;2024-02-26T13:32:27;3.23;;;2.13;;
16075;SDS011;8142;48.242;11.644;2024-02-26T13:35:09;3.93;;;2.30;;
16075;SDS011;8142;48.242;11.644;2024-02-26T13:37:36;3.07;;;2.17;;
16075;SDS011;8142;48.242;11.644;2024-02-26T13:40:10;3.40;;;2.57;;
16075;SDS011;8142;48.242;11.644;2024-02-26T13:42:37;3.30;;;2.43;;
16075;SDS011;8142;48.242;11.644;2024-02-26T13:45:04;3.43;;;2.30;;
16075;SDS011;8142;48.242;11.644;2024-02-26T13:47:34;2.90;;;2.10;;
16075;SDS011;8142;48.242;11.644;2024-02-26T13:50:00;2.00;;;1.80;;
16075;SDS011;8142;48.242;11.644;2024-02-26T13:52:28;3.37;;;2.03;;
16075;SDS011;8142;48.242;11.644;2024-02-26T13:54:54;5.80;;;2.37;;
16075;SDS011;8142;48.242;11.644;2024-02-26T13:57:19;4.00;;;2.60;;
16075;SDS011;8142;48.242;11.644;2024-02-26T13:59:46;6.93;;;2.50;;
16075;SDS011;8142;48.242;11.644;2024-02-26T14:02:13;5.47;;;2.73;;
16075;SDS011;8142;48.242;11.644;2024-02-26T14:04:39;3.80;;;2.33;;
16075;SDS011;8142;48.242;11.644;2024-02-26T14:07:05;5.37;;;2.40;;
16075;SDS011;8142;48.242;11.644;2024-02-26T14:09:31;4.37;;;2.40;;
16075;SDS011;8142;48.242;11.644;2024-02-26T14:12:00;3.77;;;2.50;;
16075;SDS011;8142;48.242;11.644;2024-02-26T14:14:29;2.73;;;2.40;;
16075;SDS011;8142;48.242;11.644;2024-02-26T14:17:00;2.50;;;2.20;;
16075;SDS011;8142;48.242;11.644;2024-02-26T14:19:28;2.87;;;1.97;;
16075;SDS011;8142;48.242;11.644;2024-02-26T14:21:54;2.30;;;2.03;;
16075;SDS011;8142;48.242;11.644;2024-02-26T14:24:20;4.87;;;2.17;;
16075;SDS011;8142;48.242;11.644;2024-02-26T14:26:46;3.97;;;2.00;;
16075;SDS011;8142;48.242;11.644;2024-02-26T14:29:12;2.00;;;1.80;;
16075;SDS011;8142;48.242;11.644;2024-02-26T14:31:39;3.30;;;1.80;;
16075;SDS011;8142;48.242;11.644;2024-02-26T14:34:05;2.90;;;1.60;;
16075;SDS011;8142;48.242;11.644;2024-02-26T14:36:31;2.40;;;1.87;;
16075;SDS011;8142;48.242;11.644;2024-02-26T14:38:57;1.60;;;1.50;;
16075;SDS011;8142;48.242;11.644;2024-02-26T14:41:23;1.83;;;1.70;;